sensor_id;sensor_type;location;lat;lon;timestamp;pressure;altitude;pressure_sealevel;temperature;humidity
72560;BME280;62987;52.382;9.752;2023-06-14T00:02:10;100950.00;;;15.75;53.70
72560;BME280;62987;52.382;9.752;2023-06-14T00:04:38;100962.81;;;15.70;53.97
72560;BME280;62987;52.382;9.752;2023-06-14T00:07:08;100955.06;;;15.66;54.62
72560;BME280;62987;52.382;9.752;2023-06-14T00:09:40;100958.09;;;15.59;54.44
72560;BME280;62987;52.382;9.752;2023-06-14T00:12:08;100966.50;;;15.53;54.91
72560;BME280;62987;52.382;9.752;2023-06-14T00:14:36;100962.22;;;15.49;54.80
72560;BME280;62987;52.382;9.752;2023-06-14T00:17:05;100959.31;;;15.38;55.33
72560;BME280;62987;52.382;9.752;2023-06-14T00:19:34;100962.78;;;15.40;55.25
72560;BME280;62987;52.382;9.752;2023-06-14T00:22:03;100967.28;;;15.40;55.02
72560;BME280;62987;52.382;9.752;2023-06-14T00:24:31;100966.41;;;15.39;55.24
72560;BME280;62987;52.382;9.752;2023-06-14T00:26:59;100967.44;;;15.37;55.28
72560;BME280;62987;52.382;9.752;2023-06-14T00:29:28;100968.22;;;15.39;55.45
72560;BME280;62987;52.382;9.752;2023-06-14T00:31:56;100975.59;;;15.35;55.24
72560;BME280;62987;52.382;9.752;2023-06-14T00:34:27;100980.16;;;15.33;55.49
72560;BME280;62987;52.382;9.752;2023-06-14T00:36:55;100973.06;;;15.32;55.84
72560;BME280;62987;52.382;9.752;2023-06-14T00:39:23;100975.31;;;15.24;55.94
72560;BME280;62987;52.382;9.752;2023-06-14T00:41:51;100973.94;;;15.17;56.52
72560;BME280;62987;52.382;9.752;2023-06-14T00:44:20;100979.41;;;15.15;56.46
72560;BME280;62987;52.382;9.752;2023-06-14T00:46:48;100976.88;;;15.12;56.39
72560;BME280;62987;52.382;9.752;2023-06-14T00:49:17;100970.50;;;15.15;56.72
72560;BME280;62987;52.382;9.752;2023-06-14T00:51:46;100972.75;;;15.07;56.93
72560;BME280;62987;52.382;9.752;2023-06-14T00:54:14;100973.88;;;15.03;57.07
72560;BME280;62987;52.382;9.752;2023-06-14T00:56:43;100976.53;;;14.87;57.13
72560;BME280;62987;52.382;9.752;2023-06-14T00:59:12;100978.78;;;14.95;57.92
72560;BME280;62987;52.382;9.752;2023-06-14T01:01:40;100985.44;;;14.88;58.17
72560;BME280;62987;52.382;9.752;2023-06-14T01:04:08;100994.50;;;14.85;58.52
72560;BME280;62987;52.382;9.752;2023-06-14T01:06:41;100983.59;;;14.72;58.54
72560;BME280;62987;52.382;9.752;2023-06-14T01:09:18;100988.19;;;14.70;58.99
72560;BME280;62987;52.382;9.752;2023-06-14T01:11:59;100994.47;;;14.69;59.36
72560;BME280;62987;52.382;9.752;2023-06-14T01:14:31;100993.94;;;14.63;59.67
72560;BME280;62987;52.382;9.752;2023-06-14T01:17:01;100958.34;;;14.45;59.94
72560;BME280;62987;52.382;9.752;2023-06-14T01:19:29;100990.34;;;14.64;60.05
72560;BME280;62987;52.382;9.752;2023-06-14T01:22:00;100984.44;;;14.57;60.01
72560;BME280;62987;52.382;9.752;2023-06-14T01:24:30;100988.94;;;14.57;60.32
72560;BME280;62987;52.382;9.752;2023-06-14T01:27:02;100983.91;;;14.51;60.50
72560;BME280;62987;52.382;9.752;2023-06-14T01:29:31;100984.06;;;14.48;60.99
72560;BME280;62987;52.382;9.752;2023-06-14T01:32:00;100986.06;;;14.44;60.66
72560;BME280;62987;52.382;9.752;2023-06-14T01:34:30;100982.56;;;14.42;61.10
72560;BME280;62987;52.382;9.752;2023-06-14T01:37:00;100992.50;;;14.40;61.22
72560;BME280;62987;52.382;9.752;2023-06-14T01:39:32;100996.09;;;14.39;61.73
72560;BME280;62987;52.382;9.752;2023-06-14T01:42:01;100990.03;;;14.35;61.98
72560;BME280;62987;52.382;9.752;2023-06-14T01:44:30;100973.16;;;14.18;61.70
72560;BME280;62987;52.382;9.752;2023-06-14T01:47:00;100998.63;;;14.25;62.30
72560;BME280;62987;52.382;9.752;2023-06-14T01:49:28;100994.06;;;14.10;62.83
72560;BME280;62987;52.382;9.752;2023-06-14T01:51:56;101003.91;;;14.09;63.13
72560;BME280;62987;52.382;9.752;2023-06-14T01:54:24;100994.22;;;14.07;63.22
72560;BME280;62987;52.382;9.752;2023-06-14T01:56:55;101000.75;;;14.01;63.58
72560;BME280;62987;52.382;9.752;2023-06-14T01:59:23;100991.25;;;13.95;63.83
72560;BME280;62987;52.382;9.752;2023-06-14T02:01:52;100992.50;;;13.88;64.17
72560;BME280;62987;52.382;9.752;2023-06-14T02:04:20;101004.31;;;13.84;64.37
72560;BME280;62987;52.382;9.752;2023-06-14T02:06:48;100999.41;;;13.75;64.75
72560;BME280;62987;52.382;9.752;2023-06-14T02:09:17;100994.38;;;13.69;65.03
72560;BME280;62987;52.382;9.752;2023-06-14T02:11:45;100993.13;;;13.76;65.50
72560;BME280;62987;52.382;9.752;2023-06-14T02:14:14;100998.66;;;13.73;65.43
72560;BME280;62987;52.382;9.752;2023-06-14T02:16:43;100990.94;;;13.67;65.61
72560;BME280;62987;52.382;9.752;2023-06-14T02:19:15;100993.59;;;13.67;65.84
72560;BME280;62987;52.382;9.752;2023-06-14T02:21:44;100990.69;;;13.54;65.93
72560;BME280;62987;52.382;9.752;2023-06-14T02:24:12;101001.06;;;13.60;66.23
72560;BME280;62987;52.382;9.752;2023-06-14T02:26:41;101005.53;;;13.60;66.44
72560;BME280;62987;52.382;9.752;2023-06-14T02:29:15;101008.53;;;13.54;66.45
72560;BME280;62987;52.382;9.752;2023-06-14T02:31:43;100985.22;;;13.39;66.68
72560;BME280;62987;52.382;9.752;2023-06-14T02:34:13;101012.19;;;13.51;67.07
72560;BME280;62987;52.382;9.752;2023-06-14T02:36:43;101014.31;;;13.45;67.10
72560;BME280;62987;52.382;9.752;2023-06-14T02:39:11;101014.25;;;13.46;67.31
72560;BME280;62987;52.382;9.752;2023-06-14T02:41:39;101007.47;;;13.39;67.60
72560;BME280;62987;52.382;9.752;2023-06-14T02:44:07;101002.34;;;13.35;67.66
72560;BME280;62987;52.382;9.752;2023-06-14T02:46:37;101007.69;;;13.35;68.03
72560;BME280;62987;52.382;9.752;2023-06-14T02:49:04;101010.38;;;13.35;68.13
72560;BME280;62987;52.382;9.752;2023-06-14T02:51:32;101021.56;;;13.24;68.15
72560;BME280;62987;52.382;9.752;2023-06-14T02:54:01;101016.38;;;13.21;68.57
72560;BME280;62987;52.382;9.752;2023-06-14T02:56:29;101024.50;;;13.18;68.81
72560;BME280;62987;52.382;9.752;2023-06-14T02:58:57;101025.63;;;13.14;69.38
72560;BME280;62987;52.382;9.752;2023-06-14T03:01:25;101030.53;;;13.03;69.52
72560;BME280;62987;52.382;9.752;2023-06-14T03:04:07;101036.91;;;13.00;69.74
72560;BME280;62987;52.382;9.752;2023-06-14T03:06:38;101040.91;;;12.90;70.30
72560;BME280;62987;52.382;9.752;2023-06-14T03:09:07;101038.13;;;12.93;70.08
72560;BME280;62987;52.382;9.752;2023-06-14T03:11:38;101037.84;;;12.99;70.30
72560;BME280;62987;52.382;9.752;2023-06-14T03:14:06;101047.59;;;13.00;70.58
72560;BME280;62987;52.382;9.752;2023-06-14T03:16:36;101052.06;;;13.00;71.03
72560;BME280;62987;52.382;9.752;2023-06-14T03:19:05;101044.41;;;12.92;70.83
72560;BME280;62987;52.382;9.752;2023-06-14T03:21:34;101049.91;;;12.89;71.32
72560;BME280;62987;52.382;9.752;2023-06-14T03:24:03;101055.06;;;12.92;71.14
72560;BME280;62987;52.382;9.752;2023-06-14T03:26:35;100974.66;;;12.42;71.47
72560;BME280;62987;52.382;9.752;2023-06-14T03:29:04;101053.44;;;12.90;71.74
72560;BME280;62987;52.382;9.752;2023-06-14T03:31:33;101062.16;;;12.93;71.54
72560;BME280;62987;52.382;9.752;2023-06-14T03:34:04;101058.84;;;12.88;71.45
72560;BME280;62987;52.382;9.752;2023-06-14T03:36:35;101071.25;;;12.89;71.63
72560;BME280;62987;52.382;9.752;2023-06-14T03:39:04;101068.66;;;12.88;71.85
72560;BME280;62987;52.382;9.752;2023-06-14T03:41:33;101063.66;;;12.80;72.19
72560;BME280;62987;52.382;9.752;2023-06-14T03:44:01;101073.13;;;12.87;72.08
72560;BME280;62987;52.382;9.752;2023-06-14T03:46:29;101062.66;;;12.82;72.27
72560;BME280;62987;52.382;9.752;2023-06-14T03:48:58;100957.16;;;12.16;72.50
72560;BME280;62987;52.382;9.752;2023-06-14T03:51:27;101070.44;;;12.87;72.82
72560;BME280;62987;52.382;9.752;2023-06-14T03:53:56;101082.06;;;12.86;72.70
72560;BME280;62987;52.382;9.752;2023-06-14T03:56:44;101083.00;;;12.85;72.93
72560;BME280;62987;52.382;9.752;2023-06-14T03:59:13;101083.50;;;12.93;72.92
72560;BME280;62987;52.382;9.752;2023-06-14T04:01:42;101077.31;;;12.93;72.99
72560;BME280;62987;52.382;9.752;2023-06-14T04:04:13;101081.78;;;12.92;73.23
72560;BME280;62987;52.382;9.752;2023-06-14T04:06:43;101084.38;;;12.94;73.27
72560;BME280;62987;52.382;9.752;2023-06-14T04:09:12;101087.13;;;12.92;72.92
72560;BME280;62987;52.382;9.752;2023-06-14T04:11:41;101089.50;;;12.98;73.13
72560;BME280;62987;52.382;9.752;2023-06-14T04:14:09;101087.41;;;13.05;73.01
72560;BME280;62987;52.382;9.752;2023-06-14T04:16:37;101098.84;;;13.08;72.07
72560;BME280;62987;52.382;9.752;2023-06-14T04:19:05;101096.88;;;13.12;72.33
72560;BME280;62987;52.382;9.752;2023-06-14T04:21:33;101102.72;;;13.22;72.10
72560;BME280;62987;52.382;9.752;2023-06-14T04:24:03;101103.38;;;13.27;71.82
72560;BME280;62987;52.382;9.752;2023-06-14T04:26:34;101093.31;;;13.32;71.61
72560;BME280;62987;52.382;9.752;2023-06-14T04:29:03;101099.00;;;13.43;70.88
72560;BME280;62987;52.382;9.752;2023-06-14T04:31:38;101105.38;;;13.59;70.94
72560;BME280;62987;52.382;9.752;2023-06-14T04:34:08;101100.66;;;13.64;70.11
72560;BME280;62987;52.382;9.752;2023-06-14T04:36:47;101085.13;;;13.72;69.81
72560;BME280;62987;52.382;9.752;2023-06-14T04:39:21;101106.72;;;13.86;69.15
72560;BME280;62987;52.382;9.752;2023-06-14T04:41:50;101108.97;;;13.94;68.26
72560;BME280;62987;52.382;9.752;2023-06-14T04:44:24;101110.28;;;14.21;67.94
72560;BME280;62987;52.382;9.752;2023-06-14T04:46:57;101107.00;;;14.16;67.35
72560;BME280;62987;52.382;9.752;2023-06-14T04:49:26;101116.38;;;14.25;67.16
72560;BME280;62987;52.382;9.752;2023-06-14T04:51:56;101118.25;;;14.23;67.23
72560;BME280;62987;52.382;9.752;2023-06-14T04:54:28;101117.06;;;14.28;67.02
72560;BME280;62987;52.382;9.752;2023-06-14T04:57:00;101116.69;;;14.53;66.41
72560;BME280;62987;52.382;9.752;2023-06-14T04:59:29;101121.59;;;14.62;66.52
72560;BME280;62987;52.382;9.752;2023-06-14T05:02:00;101123.31;;;14.63;65.45
72560;BME280;62987;52.382;9.752;2023-06-14T05:04:28;101123.16;;;14.66;65.17
72560;BME280;62987;52.382;9.752;2023-06-14T05:06:57;101120.16;;;14.90;64.76
72560;BME280;62987;52.382;9.752;2023-06-14T05:09:26;101122.91;;;14.88;64.29
72560;BME280;62987;52.382;9.752;2023-06-14T05:11:54;101122.69;;;15.08;63.86
72560;BME280;62987;52.382;9.752;2023-06-14T05:14:24;101124.97;;;15.16;64.02
72560;BME280;62987;52.382;9.752;2023-06-14T05:16:52;101127.47;;;15.19;62.99
72560;BME280;62987;52.382;9.752;2023-06-14T05:19:20;101129.13;;;15.22;63.08
72560;BME280;62987;52.382;9.752;2023-06-14T05:21:48;101141.00;;;15.33;62.12
72560;BME280;62987;52.382;9.752;2023-06-14T05:24:16;101131.47;;;15.43;62.02
72560;BME280;62987;52.382;9.752;2023-06-14T05:26:45;101136.38;;;15.84;60.57
72560;BME280;62987;52.382;9.752;2023-06-14T05:29:13;101140.00;;;15.83;61.65
72560;BME280;62987;52.382;9.752;2023-06-14T05:31:42;101146.00;;;15.88;61.57
72560;BME280;62987;52.382;9.752;2023-06-14T05:34:10;101141.47;;;15.88;60.65
72560;BME280;62987;52.382;9.752;2023-06-14T05:36:38;101139.84;;;15.86;61.01
72560;BME280;62987;52.382;9.752;2023-06-14T05:39:06;101141.13;;;15.94;60.06
72560;BME280;62987;52.382;9.752;2023-06-14T05:41:35;101128.22;;;16.01;60.17
72560;BME280;62987;52.382;9.752;2023-06-14T05:44:03;101073.63;;;15.39;60.11
72560;BME280;62987;52.382;9.752;2023-06-14T05:46:31;101137.41;;;15.97;59.96
72560;BME280;62987;52.382;9.752;2023-06-14T05:49:00;101143.28;;;16.19;60.47
72560;BME280;62987;52.382;9.752;2023-06-14T05:51:28;101145.66;;;16.39;59.25
72560;BME280;62987;52.382;9.752;2023-06-14T05:53:56;101147.19;;;16.44;59.18
72560;BME280;62987;52.382;9.752;2023-06-14T05:56:24;101145.59;;;16.55;58.82
72560;BME280;62987;52.382;9.752;2023-06-14T05:58:53;101144.22;;;16.48;58.44
72560;BME280;62987;52.382;9.752;2023-06-14T06:01:21;101145.28;;;16.46;58.96
72560;BME280;62987;52.382;9.752;2023-06-14T06:03:49;101145.44;;;16.58;58.58
72560;BME280;62987;52.382;9.752;2023-06-14T06:06:18;101145.78;;;16.82;57.73
72560;BME280;62987;52.382;9.752;2023-06-14T06:08:46;101140.78;;;16.76;57.48
72560;BME280;62987;52.382;9.752;2023-06-14T06:11:14;101153.81;;;16.68;57.56
72560;BME280;62987;52.382;9.752;2023-06-14T06:13:42;101147.59;;;16.82;57.67
72560;BME280;62987;52.382;9.752;2023-06-14T06:16:10;101155.38;;;16.86;57.73
72560;BME280;62987;52.382;9.752;2023-06-14T06:18:38;101152.53;;;17.03;57.20
72560;BME280;62987;52.382;9.752;2023-06-14T06:21:08;101153.59;;;17.01;56.87
72560;BME280;62987;52.382;9.752;2023-06-14T06:23:37;101154.00;;;17.23;56.07
72560;BME280;62987;52.382;9.752;2023-06-14T06:26:05;101156.38;;;17.28;56.56
72560;BME280;62987;52.382;9.752;2023-06-14T06:28:33;101156.66;;;17.37;55.77
72560;BME280;62987;52.382;9.752;2023-06-14T06:31:01;101154.44;;;17.58;55.43
72560;BME280;62987;52.382;9.752;2023-06-14T06:33:31;101150.03;;;17.71;55.16
72560;BME280;62987;52.382;9.752;2023-06-14T06:35:59;101161.75;;;17.70;54.72
72560;BME280;62987;52.382;9.752;2023-06-14T06:38:27;101097.81;;;17.33;54.68
72560;BME280;62987;52.382;9.752;2023-06-14T06:40:56;101163.28;;;17.88;53.58
72560;BME280;62987;52.382;9.752;2023-06-14T06:43:24;101167.41;;;17.94;53.97
72560;BME280;62987;52.382;9.752;2023-06-14T06:45:52;101166.59;;;18.06;54.15
72560;BME280;62987;52.382;9.752;2023-06-14T06:48:20;101165.31;;;18.12;53.06
72560;BME280;62987;52.382;9.752;2023-06-14T06:50:48;101153.59;;;18.13;53.46
72560;BME280;62987;52.382;9.752;2023-06-14T06:53:19;101171.81;;;18.22;51.96
72560;BME280;62987;52.382;9.752;2023-06-14T06:56:06;101194.13;;;18.24;51.51
72560;BME280;62987;52.382;9.752;2023-06-14T06:58:34;101117.00;;;17.55;52.71
72560;BME280;62987;52.382;9.752;2023-06-14T07:01:02;101182.38;;;18.25;51.41
72560;BME280;62987;52.382;9.752;2023-06-14T07:03:30;101186.84;;;18.12;51.64
72560;BME280;62987;52.382;9.752;2023-06-14T07:05:58;101192.63;;;18.20;51.00
72560;BME280;62987;52.382;9.752;2023-06-14T07:08:26;101181.72;;;18.21;51.01
72560;BME280;62987;52.382;9.752;2023-06-14T07:10:54;101191.94;;;18.43;51.45
72560;BME280;62987;52.382;9.752;2023-06-14T07:13:24;101162.16;;;18.32;50.37
72560;BME280;62987;52.382;9.752;2023-06-14T07:15:54;101186.84;;;18.12;51.53
72560;BME280;62987;52.382;9.752;2023-06-14T07:18:22;101183.66;;;18.46;50.85
72560;BME280;62987;52.382;9.752;2023-06-14T07:20:50;101187.00;;;18.76;49.86
72560;BME280;62987;52.382;9.752;2023-06-14T07:23:18;101201.25;;;18.79;49.72
72560;BME280;62987;52.382;9.752;2023-06-14T07:25:46;101199.38;;;18.66;49.38
72560;BME280;62987;52.382;9.752;2023-06-14T07:28:15;101186.47;;;18.71;49.55
72560;BME280;62987;52.382;9.752;2023-06-14T07:30:45;101191.44;;;18.90;48.86
72560;BME280;62987;52.382;9.752;2023-06-14T07:33:13;101201.06;;;19.07;47.46
72560;BME280;62987;52.382;9.752;2023-06-14T07:35:41;101199.75;;;19.25;47.45
72560;BME280;62987;52.382;9.752;2023-06-14T07:38:09;101191.47;;;19.15;46.75
72560;BME280;62987;52.382;9.752;2023-06-14T07:40:37;101196.66;;;19.31;47.36
72560;BME280;62987;52.382;9.752;2023-06-14T07:43:05;101194.38;;;19.76;45.98
72560;BME280;62987;52.382;9.752;2023-06-14T07:45:33;101182.34;;;19.92;45.17
72560;BME280;62987;52.382;9.752;2023-06-14T07:48:02;101200.88;;;19.97;45.28
72560;BME280;62987;52.382;9.752;2023-06-14T07:50:31;101196.69;;;19.93;45.13
72560;BME280;62987;52.382;9.752;2023-06-14T07:52:59;101190.38;;;19.69;46.09
72560;BME280;62987;52.382;9.752;2023-06-14T07:55:27;101186.69;;;19.82;44.93
72560;BME280;62987;52.382;9.752;2023-06-14T07:58:05;101190.00;;;20.22;44.93
72560;BME280;62987;52.382;9.752;2023-06-14T08:00:34;101194.81;;;20.43;43.27
72560;BME280;62987;52.382;9.752;2023-06-14T08:03:03;101195.34;;;20.11;43.61
72560;BME280;62987;52.382;9.752;2023-06-14T08:05:31;101181.22;;;20.31;43.95
72560;BME280;62987;52.382;9.752;2023-06-14T08:07:59;101180.13;;;20.58;41.88
72560;BME280;62987;52.382;9.752;2023-06-14T08:10:27;101185.94;;;20.99;41.25
72560;BME280;62987;52.382;9.752;2023-06-14T08:12:55;101187.22;;;22.18;39.88
72560;BME280;62987;52.382;9.752;2023-06-14T08:15:23;101196.84;;;21.88;39.01
72560;BME280;62987;52.382;9.752;2023-06-14T08:17:51;101196.28;;;22.39;38.55
72560;BME280;62987;52.382;9.752;2023-06-14T08:20:21;101195.63;;;22.04;38.66
72560;BME280;62987;52.382;9.752;2023-06-14T08:22:49;101190.09;;;21.83;38.87
72560;BME280;62987;52.382;9.752;2023-06-14T08:25:22;101182.09;;;21.70;39.33
72560;BME280;62987;52.382;9.752;2023-06-14T08:27:50;101194.53;;;22.38;37.70
72560;BME280;62987;52.382;9.752;2023-06-14T08:30:18;101190.41;;;22.23;37.92
72560;BME280;62987;52.382;9.752;2023-06-14T08:32:46;101191.50;;;22.63;37.13
72560;BME280;62987;52.382;9.752;2023-06-14T08:35:29;101194.88;;;21.90;38.25
72560;BME280;62987;52.382;9.752;2023-06-14T08:37:57;101195.56;;;22.26;38.08
72560;BME280;62987;52.382;9.752;2023-06-14T08:40:26;101191.03;;;22.58;37.29
72560;BME280;62987;52.382;9.752;2023-06-14T08:42:57;101199.38;;;22.66;36.69
72560;BME280;62987;52.382;9.752;2023-06-14T08:45:25;101181.00;;;22.38;37.22
72560;BME280;62987;52.382;9.752;2023-06-14T08:47:56;101197.53;;;22.35;38.13
72560;BME280;62987;52.382;9.752;2023-06-14T08:50:28;101178.41;;;22.37;36.58
72560;BME280;62987;52.382;9.752;2023-06-14T08:53:00;101177.53;;;22.47;37.12
72560;BME280;62987;52.382;9.752;2023-06-14T08:55:31;101195.13;;;22.10;37.67
72560;BME280;62987;52.382;9.752;2023-06-14T08:58:03;101181.00;;;22.38;37.05
72560;BME280;62987;52.382;9.752;2023-06-14T09:00:32;101179.19;;;22.59;37.42
72560;BME280;62987;52.382;9.752;2023-06-14T09:05:31;101186.84;;;23.48;35.39
72560;BME280;62987;52.382;9.752;2023-06-14T09:07:59;101188.38;;;23.72;35.32
72560;BME280;62987;52.382;9.752;2023-06-14T09:10:32;101192.22;;;22.97;36.65
72560;BME280;62987;52.382;9.752;2023-06-14T09:13:01;101194.00;;;22.87;35.96
72560;BME280;62987;52.382;9.752;2023-06-14T09:15:30;101193.22;;;22.64;35.40
72560;BME280;62987;52.382;9.752;2023-06-14T09:18:00;101193.50;;;22.50;35.52
72560;BME280;62987;52.382;9.752;2023-06-14T09:20:31;101195.09;;;22.21;37.00
72560;BME280;62987;52.382;9.752;2023-06-14T09:23:00;101202.50;;;21.74;38.21
72560;BME280;62987;52.382;9.752;2023-06-14T09:25:29;101195.00;;;21.78;38.54
72560;BME280;62987;52.382;9.752;2023-06-14T09:28:06;101198.31;;;21.92;38.21
72560;BME280;62987;52.382;9.752;2023-06-14T09:30:36;101200.56;;;22.10;37.89
72560;BME280;62987;52.382;9.752;2023-06-14T09:33:04;101184.78;;;21.59;37.37
72560;BME280;62987;52.382;9.752;2023-06-14T09:35:34;101210.66;;;22.08;36.88
72560;BME280;62987;52.382;9.752;2023-06-14T09:38:02;101215.06;;;21.86;37.36
72560;BME280;62987;52.382;9.752;2023-06-14T09:40:34;101218.50;;;21.66;38.11
72560;BME280;62987;52.382;9.752;2023-06-14T09:43:06;101210.00;;;21.93;38.00
72560;BME280;62987;52.382;9.752;2023-06-14T09:45:35;101203.25;;;21.99;37.91
72560;BME280;62987;52.382;9.752;2023-06-14T09:48:06;101194.47;;;22.28;38.05
72560;BME280;62987;52.382;9.752;2023-06-14T09:50:36;101194.59;;;22.27;38.29
72560;BME280;62987;52.382;9.752;2023-06-14T09:53:06;101195.59;;;22.58;37.78
72560;BME280;62987;52.382;9.752;2023-06-14T09:55:36;101199.78;;;22.19;37.04
72560;BME280;62987;52.382;9.752;2023-06-14T09:58:06;101191.53;;;22.20;37.19
72560;BME280;62987;52.382;9.752;2023-06-14T10:00:36;101190.41;;;22.23;38.10
72560;BME280;62987;52.382;9.752;2023-06-14T10:03:12;101160.59;;;22.23;37.09
72560;BME280;62987;52.382;9.752;2023-06-14T10:05:44;101185.19;;;22.42;37.70
72560;BME280;62987;52.382;9.752;2023-06-14T10:08:14;101196.59;;;22.14;38.45
72560;BME280;62987;52.382;9.752;2023-06-14T10:10:44;101183.78;;;22.16;38.37
72560;BME280;62987;52.382;9.752;2023-06-14T10:13:13;101171.69;;;22.52;38.24
72560;BME280;62987;52.382;9.752;2023-06-14T10:15:56;101193.13;;;22.23;37.52
72560;BME280;62987;52.382;9.752;2023-06-14T10:18:33;101183.97;;;22.35;38.04
72560;BME280;62987;52.382;9.752;2023-06-14T10:21:11;101169.91;;;22.30;37.72
72560;BME280;62987;52.382;9.752;2023-06-14T10:23:43;101181.47;;;22.43;38.16
72560;BME280;62987;52.382;9.752;2023-06-14T10:26:19;101173.88;;;22.58;37.55
72560;BME280;62987;52.382;9.752;2023-06-14T10:28:56;101172.16;;;22.89;37.78
72560;BME280;62987;52.382;9.752;2023-06-14T10:31:42;101154.63;;;22.93;36.49
72560;BME280;62987;52.382;9.752;2023-06-14T10:34:12;101158.47;;;22.90;36.98
72560;BME280;62987;52.382;9.752;2023-06-14T10:36:43;101169.16;;;23.33;36.81
72560;BME280;62987;52.382;9.752;2023-06-14T10:39:15;101158.47;;;23.41;36.94
72560;BME280;62987;52.382;9.752;2023-06-14T10:41:51;101160.63;;;22.96;37.22
72560;BME280;62987;52.382;9.752;2023-06-14T10:44:39;101173.50;;;22.62;37.82
72560;BME280;62987;52.382;9.752;2023-06-14T10:47:10;101137.22;;;22.11;38.42
72560;BME280;62987;52.382;9.752;2023-06-14T10:49:40;101187.50;;;22.47;38.44
72560;BME280;62987;52.382;9.752;2023-06-14T10:52:11;101161.88;;;22.71;37.68
72560;BME280;62987;52.382;9.752;2023-06-14T10:57:44;101159.59;;;22.24;38.47
72560;BME280;62987;52.382;9.752;2023-06-14T11:00:19;101175.84;;;22.56;38.19
72560;BME280;62987;52.382;9.752;2023-06-14T11:03:36;101162.69;;;23.25;36.33
72560;BME280;62987;52.382;9.752;2023-06-14T11:06:14;101155.97;;;23.49;36.23
72560;BME280;62987;52.382;9.752;2023-06-14T11:09:10;101150.53;;;23.29;37.06
72560;BME280;62987;52.382;9.752;2023-06-14T11:11:42;101140.09;;;23.24;36.63
72560;BME280;62987;52.382;9.752;2023-06-14T11:14:11;101135.75;;;23.12;36.17
72560;BME280;62987;52.382;9.752;2023-06-14T11:16:39;101157.03;;;23.07;36.38
72560;BME280;62987;52.382;9.752;2023-06-14T11:19:07;101151.97;;;23.02;37.48
72560;BME280;62987;52.382;9.752;2023-06-14T11:21:40;101160.50;;;22.98;36.80
72560;BME280;62987;52.382;9.752;2023-06-14T11:24:11;101154.16;;;23.08;37.06
72560;BME280;62987;52.382;9.752;2023-06-14T11:26:40;101160.84;;;23.04;36.79
72560;BME280;62987;52.382;9.752;2023-06-14T11:29:08;101149.53;;;23.20;37.09
72560;BME280;62987;52.382;9.752;2023-06-14T11:31:36;101150.75;;;23.16;36.91
72560;BME280;62987;52.382;9.752;2023-06-14T11:34:05;101142.00;;;24.04;35.30
72560;BME280;62987;52.382;9.752;2023-06-14T11:36:33;101134.41;;;24.07;35.30
72560;BME280;62987;52.382;9.752;2023-06-14T11:39:03;101134.66;;;23.85;35.93
72560;BME280;62987;52.382;9.752;2023-06-14T11:41:36;101144.00;;;23.31;36.39
72560;BME280;62987;52.382;9.752;2023-06-14T11:44:05;101144.00;;;23.52;35.84
72560;BME280;62987;52.382;9.752;2023-06-14T11:46:34;101146.44;;;23.34;36.53
72560;BME280;62987;52.382;9.752;2023-06-14T11:49:03;101130.44;;;23.41;36.36
72560;BME280;62987;52.382;9.752;2023-06-14T11:51:34;101138.97;;;23.27;35.73
72560;BME280;62987;52.382;9.752;2023-06-14T11:54:03;101132.63;;;23.17;36.81
72560;BME280;62987;52.382;9.752;2023-06-14T11:56:31;101133.69;;;23.25;36.54
72560;BME280;62987;52.382;9.752;2023-06-14T11:59:02;101117.50;;;23.84;35.93
72560;BME280;62987;52.382;9.752;2023-06-14T12:01:36;101130.78;;;23.78;35.97
72560;BME280;62987;52.382;9.752;2023-06-14T12:04:05;101128.22;;;24.05;35.79
72560;BME280;62987;52.382;9.752;2023-06-14T12:06:33;101136.09;;;23.89;35.57
72560;BME280;62987;52.382;9.752;2023-06-14T12:09:04;101131.41;;;23.61;36.71
72560;BME280;62987;52.382;9.752;2023-06-14T12:11:35;101118.75;;;23.71;36.41
72560;BME280;62987;52.382;9.752;2023-06-14T12:14:05;101125.97;;;24.87;34.67
72560;BME280;62987;52.382;9.752;2023-06-14T12:16:35;101109.28;;;26.11;32.70
72560;BME280;62987;52.382;9.752;2023-06-14T12:19:12;101112.53;;;27.11;31.44
72560;BME280;62987;52.382;9.752;2023-06-14T12:21:41;101096.50;;;27.84;29.65
72560;BME280;62987;52.382;9.752;2023-06-14T12:24:11;101107.09;;;28.45;28.38
72560;BME280;62987;52.382;9.752;2023-06-14T12:26:41;101074.72;;;28.65;27.97
72560;BME280;62987;52.382;9.752;2023-06-14T12:29:11;101104.50;;;28.36;28.50
72560;BME280;62987;52.382;9.752;2023-06-14T12:31:40;101099.09;;;29.48;26.31
72560;BME280;62987;52.382;9.752;2023-06-14T12:34:09;101096.22;;;29.72;26.55
72560;BME280;62987;52.382;9.752;2023-06-14T12:36:37;101093.91;;;28.81;27.83
72560;BME280;62987;52.382;9.752;2023-06-14T12:39:11;101103.84;;;27.50;29.82
72560;BME280;62987;52.382;9.752;2023-06-14T12:41:39;101105.25;;;26.50;31.30
72560;BME280;62987;52.382;9.752;2023-06-14T12:44:11;101102.63;;;25.96;31.95
72560;BME280;62987;52.382;9.752;2023-06-14T12:46:40;101098.13;;;26.40;31.58
72560;BME280;62987;52.382;9.752;2023-06-14T12:49:09;101102.00;;;27.92;29.21
72560;BME280;62987;52.382;9.752;2023-06-14T12:51:38;101107.94;;;27.45;30.17
72560;BME280;62987;52.382;9.752;2023-06-14T12:54:06;101091.84;;;27.42;30.20
72560;BME280;62987;52.382;9.752;2023-06-14T12:56:35;101104.31;;;26.85;29.36
72560;BME280;62987;52.382;9.752;2023-06-14T12:59:03;101101.34;;;28.06;27.39
72560;BME280;62987;52.382;9.752;2023-06-14T13:01:34;101093.88;;;28.65;27.18
72560;BME280;62987;52.382;9.752;2023-06-14T13:04:02;101095.94;;;28.55;27.60
72560;BME280;62987;52.382;9.752;2023-06-14T13:06:30;101099.38;;;28.81;26.96
72560;BME280;62987;52.382;9.752;2023-06-14T13:08:59;101086.09;;;29.72;25.36
72560;BME280;62987;52.382;9.752;2023-06-14T13:11:28;101083.41;;;29.64;25.66